createdAt,value
2023-01-26T00:01:48.731Z,57.87
2023-01-26T00:04:17.006Z,57.68
2023-01-26T00:06:45.164Z,57.69
2023-01-26T00:09:14.599Z,57.77
2023-01-26T00:11:42.995Z,57.81
2023-01-26T00:14:11.309Z,57.83
2023-01-26T00:16:39.729Z,57.90
2023-01-26T00:19:07.704Z,57.64
2023-01-26T00:21:36.380Z,57.71
2023-01-26T00:24:04.754Z,57.83
2023-01-26T00:26:33.872Z,57.93
2023-01-26T00:29:02.330Z,57.88
2023-01-26T00:31:30.553Z,57.88
2023-01-26T00:34:00.716Z,57.81
2023-01-26T00:36:29.137Z,57.86
2023-01-26T00:38:57.584Z,57.88
2023-01-26T00:41:44.348Z,57.78
2023-01-26T00:44:12.772Z,57.63
2023-01-26T00:46:41.135Z,57.67
2023-01-26T00:49:10.821Z,57.63
2023-01-26T00:51:39.077Z,57.54
2023-01-26T00:54:07.053Z,57.71
2023-01-26T00:56:36.036Z,57.91
2023-01-26T00:59:04.288Z,58.02
2023-01-26T01:01:32.587Z,57.77
2023-01-26T01:04:01.752Z,57.97
2023-01-26T01:06:30.327Z,57.70
2023-01-26T01:08:58.352Z,57.53
2023-01-26T01:11:26.419Z,57.40
2023-01-26T01:13:54.546Z,57.51
2023-01-26T01:16:22.812Z,57.43
2023-01-26T01:18:55.103Z,57.50
2023-01-26T01:21:23.797Z,57.31
2023-01-26T01:23:52.115Z,57.43
2023-01-26T01:26:20.357Z,57.32
2023-01-26T01:28:48.603Z,57.40
2023-01-26T01:31:17.036Z,57.43
2023-01-26T01:33:45.124Z,57.57
2023-01-26T01:36:15.378Z,57.47
2023-01-26T01:38:44.346Z,57.42
2023-01-26T01:41:17.353Z,57.53
2023-01-26T01:43:45.637Z,57.61
2023-01-26T01:46:35.915Z,57.55
2023-01-26T01:49:17.935Z,57.34
2023-01-26T01:52:11.313Z,57.10
2023-01-26T01:54:48.965Z,56.88
2023-01-26T01:57:28.015Z,57.31
2023-01-26T02:00:00.765Z,57.45
2023-01-26T02:02:29.153Z,57.41
2023-01-26T02:04:58.036Z,57.31
2023-01-26T02:07:30.543Z,57.42
2023-01-26T02:10:17.741Z,57.26
2023-01-26T02:12:51.256Z,57.56
2023-01-26T02:15:19.295Z,57.67
2023-01-26T02:17:47.497Z,57.46
2023-01-26T02:20:43.321Z,57.50
2023-01-26T02:23:14.554Z,57.29
2023-01-26T02:25:53.082Z,57.26
2023-01-26T02:28:22.510Z,57.11
2023-01-26T02:30:50.871Z,57.27
2023-01-26T02:33:22.516Z,57.43
2023-01-26T02:35:51.032Z,57.75
2023-01-26T02:38:20.383Z,58.13
2023-01-26T02:40:55.159Z,58.68
2023-01-26T02:43:24.628Z,59.02
2023-01-26T02:45:52.839Z,59.34
2023-01-26T02:48:39.668Z,59.52
2023-01-26T02:51:08.275Z,59.65
2023-01-26T02:53:36.303Z,59.98
2023-01-26T02:56:05.126Z,60.11
2023-01-26T02:58:35.184Z,60.20
2023-01-26T03:01:03.570Z,60.38
2023-01-26T03:03:45.228Z,60.34
2023-01-26T03:06:15.399Z,60.32
2023-01-26T03:08:43.706Z,60.50
2023-01-26T03:11:11.734Z,60.38
2023-01-26T03:13:40.161Z,60.30
2023-01-26T03:16:10.386Z,60.20
2023-01-26T03:18:57.649Z,59.92
2023-01-26T03:21:44.831Z,59.61
2023-01-26T03:24:33.343Z,59.72
2023-01-26T03:27:21.450Z,59.67
2023-01-26T03:29:49.621Z,59.71
2023-01-26T03:32:19.024Z,59.47
2023-01-26T03:34:48.168Z,59.42
2023-01-26T03:37:16.267Z,59.51
2023-01-26T03:40:14.097Z,59.56
2023-01-26T03:43:01.795Z,59.61
2023-01-26T03:45:49.425Z,59.60
2023-01-26T03:48:36.544Z,59.28
2023-01-26T03:51:24.815Z,59.46
2023-01-26T03:54:11.931Z,59.56
2023-01-26T03:56:40.569Z,59.73
2023-01-26T03:59:16.000Z,59.89
2023-01-26T04:02:04.893Z,60.16
2023-01-26T04:04:53.596Z,60.14
2023-01-26T04:07:44.691Z,60.03
2023-01-26T04:10:13.432Z,60.13
2023-01-26T04:12:42.022Z,60.00
2023-01-26T04:15:34.956Z,59.97
2023-01-26T04:18:28.123Z,59.78
2023-01-26T04:21:15.908Z,59.72
2023-01-26T04:23:45.493Z,59.48
2023-01-26T04:26:13.860Z,59.62
2023-01-26T04:28:42.658Z,59.48
2023-01-26T04:31:11.232Z,59.59
2023-01-26T04:33:40.067Z,59.61
2023-01-26T04:36:08.843Z,59.64
2023-01-26T04:38:40.409Z,59.66
2023-01-26T04:41:08.946Z,59.60
2023-01-26T04:43:43.957Z,59.72
2023-01-26T04:46:12.000Z,59.89
2023-01-26T04:48:41.451Z,59.76
2023-01-26T04:51:14.929Z,59.76
2023-01-26T04:53:43.338Z,59.77
2023-01-26T04:56:25.020Z,59.76
2023-01-26T04:58:54.442Z,59.87
2023-01-26T05:01:23.580Z,59.77
2023-01-26T05:03:52.738Z,59.91
2023-01-26T05:06:21.309Z,59.60
2023-01-26T05:08:50.985Z,59.61
2023-01-26T05:11:19.332Z,59.47
2023-01-26T05:14:02.023Z,59.44
2023-01-26T05:16:57.849Z,59.36
2023-01-26T05:19:43.095Z,59.59
2023-01-26T05:22:34.309Z,59.68
2023-01-26T05:25:22.246Z,59.60
2023-01-26T05:28:04.944Z,59.82
2023-01-26T05:30:33.124Z,59.79
2023-01-26T05:33:06.182Z,59.81
2023-01-26T05:35:35.445Z,59.78
2023-01-26T05:38:04.670Z,59.65
2023-01-26T05:40:34.327Z,59.68
2023-01-26T05:43:02.706Z,59.81
2023-01-26T05:45:59.491Z,59.94
2023-01-26T05:48:27.695Z,60.08
2023-01-26T05:50:57.813Z,60.09
2023-01-26T05:53:26.868Z,59.98
2023-01-26T05:55:55.324Z,60.09
2023-01-26T05:58:25.623Z,60.09
2023-01-26T06:00:54.446Z,60.02
2023-01-26T06:03:25.709Z,59.96
2023-01-26T06:05:54.916Z,59.91
2023-01-26T06:08:32.268Z,60.21
2023-01-26T06:11:20.606Z,60.45
2023-01-26T06:14:06.612Z,60.38
2023-01-26T06:16:35.005Z,60.47
2023-01-26T06:19:03.453Z,60.56
2023-01-26T06:21:33.074Z,60.65
2023-01-26T06:24:01.306Z,60.54
2023-01-26T06:26:29.720Z,60.82
2023-01-26T06:28:58.805Z,60.81
2023-01-26T06:31:29.867Z,60.72
2023-01-26T06:34:00.283Z,60.81
2023-01-26T06:36:29.056Z,60.93
2023-01-26T06:39:00.458Z,60.72
2023-01-26T06:41:29.623Z,60.61
2023-01-26T06:43:57.892Z,60.74
2023-01-26T06:46:26.490Z,61.10
2023-01-26T06:48:56.119Z,61.66
2023-01-26T06:51:52.552Z,62.13
2023-01-26T06:54:21.311Z,62.53
2023-01-26T06:57:11.871Z,62.83
2023-01-26T06:59:40.848Z,63.25
2023-01-26T07:02:26.236Z,63.51
2023-01-26T07:04:54.318Z,63.77
2023-01-26T07:07:24.681Z,64.10
2023-01-26T07:10:13.018Z,64.16
2023-01-26T07:12:42.688Z,64.22
2023-01-26T07:15:11.621Z,64.41
2023-01-26T07:17:40.717Z,64.47
2023-01-26T07:20:10.485Z,64.77
2023-01-26T07:22:38.877Z,64.77
2023-01-26T07:25:09.234Z,64.71
2023-01-26T07:27:37.622Z,64.69
2023-01-26T07:30:06.855Z,64.78
2023-01-26T07:32:34.873Z,64.66
2023-01-26T07:35:03.040Z,64.67
2023-01-26T07:37:31.362Z,64.97
2023-01-26T07:40:02.573Z,64.93
2023-01-26T07:42:31.255Z,64.86
2023-01-26T07:45:09.173Z,64.56
2023-01-26T07:47:41.224Z,64.73
2023-01-26T07:50:11.639Z,64.85
2023-01-26T07:52:40.443Z,65.05
2023-01-26T07:55:08.537Z,65.17
2023-01-26T07:57:36.625Z,65.17
2023-01-26T08:00:05.457Z,65.17
2023-01-26T08:02:39.959Z,65.19
2023-01-26T08:05:09.021Z,65.20
2023-01-26T08:07:37.256Z,65.25
2023-01-26T08:10:06.084Z,65.38
2023-01-26T08:12:40.836Z,65.19
2023-01-26T08:15:10.947Z,65.08
2023-01-26T08:17:39.943Z,64.97
2023-01-26T08:20:09.861Z,64.92
2023-01-26T08:22:39.109Z,64.93
2023-01-26T08:25:08.252Z,64.93
2023-01-26T08:27:36.378Z,64.84
2023-01-26T08:30:05.182Z,64.86
2023-01-26T08:32:33.956Z,65.09
2023-01-26T08:35:02.146Z,65.46
2023-01-26T08:37:30.543Z,65.46
2023-01-26T08:39:58.678Z,65.52
2023-01-26T08:42:26.799Z,65.49
2023-01-26T08:44:55.021Z,65.46
2023-01-26T08:47:23.813Z,65.27
2023-01-26T08:49:52.000Z,65.28
2023-01-26T08:52:21.617Z,65.53
2023-01-26T08:54:49.728Z,65.40
2023-01-26T08:57:17.945Z,65.54
2023-01-26T08:59:46.320Z,65.45
2023-01-26T09:02:14.653Z,65.57
2023-01-26T09:04:43.189Z,65.43
2023-01-26T09:07:13.410Z,65.68
2023-01-26T09:09:41.676Z,65.72
2023-01-26T09:12:09.752Z,65.95
2023-01-26T09:14:39.277Z,66.08
2023-01-26T09:17:07.492Z,66.06
2023-01-26T09:19:35.883Z,65.87
2023-01-26T09:22:04.063Z,65.56
2023-01-26T09:24:32.285Z,65.70
2023-01-26T09:27:00.761Z,65.68
2023-01-26T09:29:29.127Z,65.65
2023-01-26T09:31:57.275Z,65.60
2023-01-26T09:34:25.571Z,65.61
2023-01-26T09:36:53.763Z,65.54
2023-01-26T09:39:21.857Z,65.42
2023-01-26T09:41:56.536Z,65.52
2023-01-26T09:44:25.946Z,65.11
2023-01-26T09:47:08.552Z,64.72
2023-01-26T09:49:45.192Z,64.75
2023-01-26T09:52:31.096Z,64.79
2023-01-26T09:55:02.796Z,64.84
2023-01-26T09:57:42.604Z,64.68
2023-01-26T10:00:21.844Z,64.72
2023-01-26T10:03:20.915Z,64.79
2023-01-26T10:05:54.044Z,64.88
2023-01-26T10:08:42.385Z,64.74
2023-01-26T10:11:46.457Z,64.95
2023-01-26T10:14:42.616Z,64.71
2023-01-26T10:17:32.189Z,64.55
2023-01-26T10:20:39.619Z,64.41
2023-01-26T10:23:12.908Z,64.24
2023-01-26T10:25:41.974Z,64.27
2023-01-26T10:28:14.388Z,63.88
2023-01-26T10:30:44.731Z,63.87
2023-01-26T10:33:19.356Z,63.86
2023-01-26T10:35:47.869Z,63.69
2023-01-26T10:38:34.466Z,63.66
2023-01-26T10:41:18.752Z,63.95
2023-01-26T10:44:01.566Z,63.90
2023-01-26T10:46:36.545Z,63.82
2023-01-26T10:49:20.037Z,64.01
2023-01-26T10:52:09.404Z,63.93
2023-01-26T10:54:39.835Z,63.91
2023-01-26T10:57:16.860Z,64.15
2023-01-26T10:59:56.268Z,63.89
2023-01-26T11:02:28.044Z,63.39
2023-01-26T11:05:08.281Z,63.21
2023-01-26T11:07:40.429Z,63.09
2023-01-26T11:10:19.312Z,63.16
2023-01-26T11:12:48.485Z,63.40
2023-01-26T11:15:17.034Z,63.45
2023-01-26T11:17:51.562Z,63.54
2023-01-26T11:20:52.110Z,63.51
2023-01-26T11:23:42.717Z,63.48
2023-01-26T11:26:26.771Z,63.43
2023-01-26T11:29:19.129Z,63.48
2023-01-26T11:32:08.011Z,63.28
2023-01-26T11:34:57.097Z,63.22
2023-01-26T11:37:54.053Z,63.42
2023-01-26T11:40:31.130Z,63.29
2023-01-26T11:43:07.064Z,63.07
2023-01-26T11:45:40.655Z,62.96
2023-01-26T11:48:29.919Z,62.62
2023-01-26T11:51:04.749Z,62.67
2023-01-26T11:53:55.221Z,62.74
2023-01-26T11:56:48.899Z,62.58
2023-01-26T11:59:22.779Z,62.54
2023-01-26T12:02:04.215Z,62.62
2023-01-26T12:04:35.794Z,62.55
2023-01-26T14:05:20.962Z,66.96
2023-01-26T14:07:47.968Z,67.13
2023-01-26T14:10:17.642Z,67.05
2023-01-26T14:12:56.639Z,66.99
2023-01-26T14:15:30.069Z,66.93
2023-01-26T14:17:58.595Z,67.13
2023-01-26T14:20:28.669Z,67.21
2023-01-26T14:23:03.424Z,67.16
2023-01-26T14:25:30.214Z,66.95
2023-01-26T14:27:56.704Z,67.01
2023-01-26T14:30:29.198Z,67.07
2023-01-26T14:32:58.683Z,67.11
2023-01-26T14:35:25.288Z,67.33
2023-01-26T14:38:16.006Z,67.46
2023-01-26T14:40:52.455Z,67.29
2023-01-26T14:54:51.672Z,66.51
2023-01-26T14:57:21.107Z,66.28
2023-01-26T14:59:50.966Z,66.26
2023-01-26T15:02:23.854Z,66.41
2023-01-26T15:04:59.079Z,66.55
2023-01-26T15:07:39.214Z,66.80
2023-01-26T15:10:42.017Z,66.96
2023-01-26T15:13:10.705Z,67.11
2023-01-26T15:15:40.520Z,67.21
2023-01-26T15:18:14.934Z,67.33
2023-01-26T15:20:43.010Z,67.51
2023-01-26T15:23:30.044Z,67.67
2023-01-26T15:26:31.712Z,67.64
2023-01-26T15:29:04.779Z,67.92
2023-01-26T15:31:34.829Z,68.08
2023-01-26T15:34:03.576Z,68.24
2023-01-26T15:36:49.154Z,68.32
2023-01-26T15:39:20.924Z,68.36
2023-01-26T15:42:10.768Z,68.38
2023-01-26T15:44:38.828Z,68.52
2023-01-26T15:47:11.460Z,68.55
2023-01-26T15:49:39.747Z,68.59
2023-01-26T15:52:14.876Z,68.76
2023-01-26T15:54:45.258Z,68.84
2023-01-26T15:57:13.532Z,68.79
2023-01-26T15:59:41.747Z,68.96
2023-01-26T16:02:19.389Z,69.25
2023-01-26T16:04:47.700Z,69.45
2023-01-26T16:07:17.494Z,69.47
2023-01-26T16:09:45.505Z,69.42
2023-01-26T16:12:32.740Z,69.64
2023-01-26T16:15:01.192Z,69.55
2023-01-26T16:17:29.570Z,69.74
2023-01-26T16:19:57.737Z,69.73
2023-01-26T16:22:25.921Z,69.85
2023-01-26T16:24:54.195Z,70.16
2023-01-26T16:27:22.774Z,69.94
2023-01-26T16:29:51.165Z,69.99
2023-01-26T16:32:29.230Z,69.80
2023-01-26T16:34:57.624Z,69.67
2023-01-26T16:37:25.742Z,69.63
2023-01-26T16:39:53.736Z,69.53
2023-01-26T16:42:22.410Z,69.65
2023-01-26T16:44:50.944Z,69.50
2023-01-26T16:47:18.922Z,69.67
2023-01-26T16:49:50.442Z,69.54
2023-01-26T16:52:18.478Z,69.48
2023-01-26T16:54:48.385Z,69.50
2023-01-26T16:57:17.483Z,69.36
2023-01-26T16:59:45.791Z,69.33
2023-01-26T17:02:23.268Z,68.97
2023-01-26T17:04:51.253Z,68.87
2023-01-26T17:07:19.576Z,68.79
2023-01-26T17:09:47.629Z,68.81
2023-01-26T17:12:15.751Z,68.54
2023-01-26T17:14:44.023Z,68.60
2023-01-26T17:17:12.155Z,68.64
2023-01-26T17:19:40.489Z,68.57
2023-01-26T17:22:08.501Z,68.76
2023-01-26T17:24:36.639Z,68.88
2023-01-26T17:27:05.377Z,68.85
2023-01-26T17:29:33.944Z,68.86
2023-01-26T17:32:02.526Z,68.88
2023-01-26T17:34:30.598Z,68.69
2023-01-26T17:37:00.075Z,68.66
2023-01-26T17:39:28.017Z,68.79
2023-01-26T17:41:56.566Z,68.75
2023-01-26T17:44:24.566Z,68.65
2023-01-26T17:46:53.514Z,68.57
2023-01-26T17:49:21.672Z,68.46
2023-01-26T17:51:49.687Z,68.49
2023-01-26T17:54:19.367Z,68.27
2023-01-26T17:56:47.532Z,68.25
2023-01-26T17:59:15.675Z,68.51
2023-01-26T18:01:43.708Z,68.66
2023-01-26T18:04:11.755Z,68.86
2023-01-26T20:07:07.687Z,73.77
2023-01-26T20:09:36.020Z,74.12
2023-01-26T20:23:54.902Z,73.23
2023-01-26T20:26:26.871Z,73.27
2023-01-26T20:28:57.936Z,73.49
2023-01-26T20:31:26.639Z,73.80
2023-01-26T20:33:58.567Z,74.07
2023-01-26T20:36:27.857Z,74.12
2023-01-26T20:38:55.829Z,74.42
2023-01-26T20:41:27.512Z,74.40
2023-01-26T20:44:00.463Z,74.52
2023-01-26T20:46:32.550Z,74.77
2023-01-26T20:49:00.764Z,74.85
2023-01-26T20:51:31.267Z,74.97
2023-01-26T20:53:59.525Z,75.02
2023-01-26T20:56:27.632Z,74.75
2023-01-26T20:58:56.022Z,74.80
2023-01-26T21:01:24.131Z,74.67
2023-01-26T21:03:52.398Z,74.40
2023-01-26T21:06:20.982Z,74.65
2023-01-26T21:08:49.617Z,74.63
2023-01-26T21:11:23.411Z,74.33
2023-01-26T21:13:54.636Z,74.37
2023-01-26T21:16:23.571Z,74.23
2023-01-26T21:18:52.305Z,74.38
2023-01-26T21:21:21.810Z,74.29
2023-01-26T21:23:50.763Z,74.47
2023-01-26T21:26:22.365Z,74.30
2023-01-26T21:28:52.106Z,74.74
2023-01-26T21:31:21.344Z,75.16
2023-01-26T21:33:49.751Z,75.32
2023-01-26T21:36:20.381Z,75.40
2023-01-26T21:38:50.893Z,75.59
2023-01-26T21:41:55.878Z,75.68
2023-01-26T21:44:25.173Z,75.87
2023-01-26T21:47:01.220Z,75.64
2023-01-26T21:49:29.555Z,75.62
2023-01-26T21:52:17.651Z,75.70
2023-01-26T21:54:46.317Z,75.73
2023-01-26T21:57:33.040Z,75.75
2023-01-26T22:00:03.765Z,75.72
2023-01-26T22:02:32.996Z,75.61
2023-01-26T22:05:01.211Z,75.96
2023-01-26T22:07:32.276Z,75.80
2023-01-26T22:10:00.497Z,75.36
2023-01-26T22:21:33.492Z,75.11
2023-01-26T22:24:01.630Z,75.37
2023-01-26T22:26:30.548Z,75.50
2023-01-26T22:29:00.259Z,75.51
2023-01-26T22:31:29.128Z,75.26
2023-01-26T22:33:58.244Z,75.37
2023-01-26T22:36:27.065Z,75.68
2023-01-26T22:38:55.310Z,75.86
2023-01-26T22:41:25.221Z,75.94
2023-01-26T22:43:55.220Z,76.04
2023-01-26T22:46:24.119Z,76.16
2023-01-26T22:48:52.267Z,76.21
2023-01-26T22:51:22.319Z,76.54
2023-01-26T22:53:51.557Z,76.54
2023-01-26T22:56:20.132Z,76.60
2023-01-26T22:59:00.140Z,76.58
2023-01-26T23:01:29.991Z,76.77
2023-01-26T23:03:59.078Z,76.81
2023-01-26T23:06:27.685Z,76.65
2023-01-26T23:09:01.173Z,76.68
2023-01-26T23:11:30.749Z,76.57
2023-01-26T23:13:59.109Z,76.58
2023-01-26T23:16:27.649Z,76.52
2023-01-26T23:18:56.837Z,76.46
2023-01-26T23:21:25.256Z,76.33
2023-01-26T23:23:53.349Z,75.89
2023-01-26T23:26:21.523Z,75.67
2023-01-26T23:28:49.519Z,75.74
2023-01-26T23:31:18.555Z,75.68
2023-01-26T23:33:46.895Z,75.62
2023-01-26T23:36:16.727Z,75.62
2023-01-26T23:38:45.869Z,75.50
2023-01-26T23:41:14.468Z,75.08
2023-01-26T23:43:42.519Z,74.86
2023-01-26T23:46:11.430Z,74.86
2023-01-26T23:48:39.419Z,74.61
2023-01-26T23:51:09.209Z,74.67
2023-01-26T23:53:38.048Z,74.79
2023-01-26T23:56:08.814Z,74.49
2023-01-26T23:58:37.667Z,74.19
